createdAt,value
2022-10-06T00:00:55.789Z,0.9
2022-10-06T00:02:05.530Z,0.9
2022-10-06T00:03:14.245Z,1.2
2022-10-06T00:04:21.926Z,0.9
2022-10-06T00:05:31.616Z,1
2022-10-06T00:06:39.321Z,1.2
2022-10-06T00:07:48.123Z,1
2022-10-06T00:08:57.788Z,1.3
2022-10-06T00:10:05.557Z,1.4
2022-10-06T00:11:15.272Z,1.2
2022-10-06T00:12:25.007Z,1.5
2022-10-06T00:13:34.772Z,1.2
2022-10-06T00:14:44.509Z,1.2
2022-10-06T00:15:52.231Z,1.1
2022-10-06T00:17:00.922Z,1
2022-10-06T00:18:10.681Z,0.9
2022-10-06T00:19:18.476Z,1.2
2022-10-06T00:20:28.299Z,0.8
2022-10-06T00:21:35.959Z,0.7
2022-10-06T00:22:44.698Z,1.1
2022-10-06T00:23:54.425Z,1.6
2022-10-06T00:25:02.212Z,1.4
2022-10-06T00:26:10.925Z,1
2022-10-06T00:27:20.629Z,1.2
2022-10-06T00:28:29.595Z,1
2022-10-06T00:29:39.046Z,1
2022-10-06T00:30:47.878Z,0.9
2022-10-06T00:31:56.529Z,0.9
2022-10-06T00:33:06.237Z,1
2022-10-06T00:34:13.918Z,1.1
2022-10-06T00:35:22.639Z,1
2022-10-06T00:36:32.350Z,1.1
2022-10-06T00:37:41.039Z,1
2022-10-06T00:38:50.750Z,0.9
2022-10-06T00:40:00.437Z,1
2022-10-06T00:41:09.126Z,1.1
2022-10-06T00:42:18.875Z,1
2022-10-06T00:43:26.619Z,1.1
2022-10-06T00:44:35.347Z,1.4
2022-10-06T00:45:45.030Z,1.4
2022-10-06T00:46:53.741Z,1.1
2022-10-06T00:48:03.454Z,0.9
2022-10-06T00:49:11.110Z,0.9
2022-10-06T00:50:18.794Z,1.2
2022-10-06T00:51:28.532Z,1.2
2022-10-06T00:52:36.198Z,1.5
2022-10-06T00:53:44.907Z,1.2
2022-10-06T00:54:54.589Z,1.6
2022-10-06T00:56:02.265Z,0.5
2022-10-06T00:57:12.015Z,0.9
2022-10-06T00:58:20.674Z,1.2
2022-10-06T00:59:28.545Z,1.4
2022-10-06T01:00:38.363Z,1.1
2022-10-06T01:01:47.043Z,1.3
2022-10-06T01:02:55.785Z,1.3
2022-10-06T01:04:05.414Z,0.9
2022-10-06T01:05:14.150Z,1.5
2022-10-06T01:06:23.836Z,1
2022-10-06T01:07:32.556Z,1.4
2022-10-06T01:08:40.241Z,1.2
2022-10-06T01:09:49.929Z,1.2
2022-10-06T01:10:57.674Z,1.2
2022-10-06T01:12:06.357Z,1.1
2022-10-06T01:13:14.054Z,1.3
2022-10-06T01:14:22.749Z,0.8
2022-10-06T01:15:32.552Z,1.5
2022-10-06T01:16:40.280Z,1.3
2022-10-06T01:17:50.020Z,1.5
2022-10-06T01:18:58.753Z,1.2
2022-10-06T01:20:06.446Z,0.7
2022-10-06T01:21:16.192Z,0.9
2022-10-06T01:22:23.908Z,0.9
2022-10-06T01:23:32.604Z,0.7
2022-10-06T01:24:42.319Z,0.9
2022-10-06T01:25:50.017Z,1.4
2022-10-06T01:26:59.708Z,1.6
2022-10-06T01:28:08.548Z,1.2
2022-10-06T01:29:17.156Z,0.8
2022-10-06T01:30:26.838Z,0.9
2022-10-06T01:31:35.698Z,0.7
2022-10-06T01:32:44.301Z,0.8
2022-10-06T01:33:54.171Z,0.7
2022-10-06T01:35:03.852Z,0.7
2022-10-06T01:36:13.589Z,0.9
2022-10-06T01:37:23.315Z,0.9
2022-10-06T01:38:31.615Z,1.1
2022-10-06T01:39:40.860Z,2
2022-10-06T01:40:48.468Z,1.9
2022-10-06T01:41:57.183Z,2.4
2022-10-06T01:43:06.878Z,2.1
2022-10-06T01:44:14.550Z,2.3
2022-10-06T01:45:24.259Z,2.1
2022-10-06T01:46:33.005Z,1.8
2022-10-06T01:47:41.728Z,2.1
2022-10-06T01:48:51.427Z,2
2022-10-06T01:49:59.132Z,1.8
2022-10-06T01:51:07.850Z,1.9
2022-10-06T01:52:17.552Z,1.9
2022-10-06T01:53:25.242Z,1.6
2022-10-06T01:54:33.945Z,1.8
2022-10-06T01:55:43.677Z,1.6
2022-10-06T01:56:52.370Z,2
2022-10-06T01:58:02.128Z,1.9
2022-10-06T01:59:09.847Z,2.2
2022-10-06T02:00:17.541Z,1.8
2022-10-06T02:01:27.267Z,1.8
2022-10-06T02:02:36.087Z,1.7
2022-10-06T02:03:45.874Z,1.7
2022-10-06T02:04:54.626Z,1.9
2022-10-06T02:06:04.365Z,2
2022-10-06T02:07:14.025Z,2.1
2022-10-06T02:08:21.720Z,2.1
2022-10-06T02:09:31.425Z,2.1
2022-10-06T02:10:41.145Z,2.4
2022-10-06T02:11:49.859Z,2.3
2022-10-06T02:12:59.588Z,1.3
2022-10-06T02:14:08.318Z,0.5
2022-10-06T02:15:17.010Z,1.1
2022-10-06T02:16:26.800Z,1.1
2022-10-06T02:17:34.371Z,1.4
2022-10-06T02:18:43.056Z,1.4
2022-10-06T02:19:52.756Z,1.2
2022-10-06T02:21:00.436Z,0.7
2022-10-06T02:22:10.172Z,0.9
2022-10-06T02:23:18.862Z,1
2022-10-06T02:24:26.550Z,1.2
2022-10-06T02:25:36.259Z,1.7
2022-10-06T02:26:45.946Z,1.3
2022-10-06T02:27:54.697Z,1.4
2022-10-06T02:29:04.354Z,1.8
2022-10-06T02:30:13.065Z,1.5
2022-10-06T02:31:22.847Z,1.1
2022-10-06T02:32:31.482Z,1.3
2022-10-06T02:33:40.248Z,1.1
2022-10-06T02:34:49.955Z,1.3
2022-10-06T02:35:58.667Z,1.7
2022-10-06T02:37:07.420Z,1.9
2022-10-06T02:38:17.134Z,1.7
2022-10-06T02:39:25.821Z,1.9
2022-10-06T02:40:35.546Z,1.6
2022-10-06T02:41:44.245Z,0.9
2022-10-06T02:42:52.073Z,0.8
2022-10-06T02:44:01.804Z,0.8
2022-10-06T02:45:09.459Z,0.7
2022-10-06T02:46:18.176Z,0.9
2022-10-06T02:47:27.824Z,0.8
2022-10-06T02:48:35.582Z,0.6
2022-10-06T02:49:45.299Z,0.8
2022-10-06T02:50:54.015Z,0.7
2022-10-06T02:52:02.690Z,0.8
2022-10-06T02:53:12.397Z,0.7
2022-10-06T02:54:20.102Z,0.8
2022-10-06T02:55:29.823Z,0.9
2022-10-06T02:56:39.517Z,0.7
2022-10-06T02:57:47.168Z,0.9
2022-10-06T02:58:55.866Z,0.9
2022-10-06T03:00:04.605Z,0.8
2022-10-06T03:01:13.274Z,0.9
2022-10-06T03:02:23.174Z,0.7
2022-10-06T03:03:30.711Z,1.1
2022-10-06T03:04:39.429Z,1.1
2022-10-06T03:05:49.216Z,1.2
2022-10-06T03:06:57.910Z,1.3
2022-10-06T03:08:07.642Z,0.9
2022-10-06T03:09:17.394Z,1
2022-10-06T03:10:27.130Z,0.9
2022-10-06T03:11:35.863Z,1.1
2022-10-06T03:12:45.624Z,1.2
2022-10-06T03:13:55.334Z,1.1
2022-10-06T03:15:03.040Z,1.3
2022-10-06T03:16:11.871Z,1.1
2022-10-06T03:17:21.461Z,1.1
2022-10-06T03:18:29.437Z,1
2022-10-06T03:19:38.889Z,1.1
2022-10-06T03:20:48.580Z,1.1
2022-10-06T03:21:57.260Z,1.2
2022-10-06T03:23:10.292Z,1
2022-10-06T03:24:16.690Z,0.8
2022-10-06T03:25:25.349Z,0.9
2022-10-06T03:26:35.022Z,0.7
2022-10-06T03:27:43.720Z,0.6
2022-10-06T03:28:53.420Z,0.7
2022-10-06T03:30:02.101Z,0.5
2022-10-06T03:31:09.861Z,0.4
2022-10-06T03:32:19.534Z,0.5
2022-10-06T03:33:27.269Z,0.5
2022-10-06T03:34:37.019Z,0.6
2022-10-06T03:35:46.712Z,0.7
2022-10-06T03:36:54.454Z,0.5
2022-10-06T03:38:04.319Z,0.5
2022-10-06T03:39:12.976Z,0.8
2022-10-06T03:40:20.828Z,0.7
2022-10-06T03:41:30.524Z,0.6
2022-10-06T03:42:38.217Z,0.7
2022-10-06T03:43:47.941Z,0.7
2022-10-06T03:44:56.628Z,0.8
2022-10-06T03:46:06.350Z,0.8
2022-10-06T03:47:17.347Z,1
2022-10-06T03:48:24.746Z,0.9
2022-10-06T03:49:31.489Z,1
2022-10-06T03:50:41.207Z,0.8
2022-10-06T03:51:48.922Z,0.6
2022-10-06T03:52:58.664Z,0.7
2022-10-06T03:54:08.396Z,0.8
2022-10-06T03:55:16.063Z,0.7
2022-10-06T03:56:25.775Z,0.7
2022-10-06T03:57:35.467Z,0.8
2022-10-06T03:58:45.210Z,0.6
2022-10-06T03:59:54.928Z,0.5
2022-10-06T04:01:04.788Z,0.6
2022-10-06T04:02:13.618Z,0.7
2022-10-06T04:03:23.221Z,0.8
2022-10-06T04:04:33.138Z,0.6
2022-10-06T04:05:43.026Z,0.8
2022-10-06T04:06:51.732Z,0.8
2022-10-06T04:08:00.423Z,1
2022-10-06T04:09:14.107Z,0.7
2022-10-06T04:10:19.975Z,0.7
2022-10-06T04:11:29.694Z,0.6
2022-10-06T04:12:39.691Z,0.7
2022-10-06T04:13:48.436Z,0.6
2022-10-06T04:15:00.182Z,0.6
2022-10-06T04:16:07.943Z,0.6
2022-10-06T04:17:15.593Z,0.5
2022-10-06T04:18:24.255Z,0.5
2022-10-06T04:19:31.985Z,0.8
2022-10-06T04:20:40.739Z,0.7
2022-10-06T04:21:50.437Z,0.5
2022-10-06T04:22:59.150Z,0.6
2022-10-06T04:24:08.871Z,0.8
2022-10-06T04:25:18.177Z,0.6
2022-10-06T04:26:26.885Z,0.7
2022-10-06T04:27:36.585Z,0.6
2022-10-06T04:28:45.369Z,0.7
2022-10-06T04:29:55.067Z,0.6
2022-10-06T04:31:04.781Z,0.9
2022-10-06T04:32:13.518Z,0.8
2022-10-06T04:33:23.251Z,0.5
2022-10-06T04:34:31.934Z,0.7
2022-10-06T04:35:40.648Z,0.9
2022-10-06T04:36:50.507Z,0.8
2022-10-06T04:37:59.088Z,0.8
2022-10-06T04:39:07.765Z,0.7
2022-10-06T04:40:17.456Z,0.9
2022-10-06T04:41:27.170Z,0.9
2022-10-06T04:42:36.846Z,0.9
2022-10-06T04:43:46.704Z,0.8
2022-10-06T04:44:54.490Z,0.9
2022-10-06T04:46:18.321Z,0.9
2022-10-06T04:47:13.848Z,0.8
2022-10-06T04:48:23.550Z,1
2022-10-06T04:49:35.647Z,0.9
2022-10-06T04:50:43.400Z,0.9
2022-10-06T04:51:53.101Z,1
2022-10-06T04:53:01.743Z,1
2022-10-06T04:54:10.424Z,1
2022-10-06T04:55:20.113Z,1.1
2022-10-06T04:56:28.802Z,0.9
2022-10-06T04:57:37.470Z,0.9
2022-10-06T04:58:47.205Z,0.9
2022-10-06T04:59:54.864Z,1
2022-10-06T05:01:04.640Z,0.9
2022-10-06T05:02:13.405Z,0.8
2022-10-06T05:03:22.040Z,0.9
2022-10-06T05:04:31.721Z,0.8
2022-10-06T05:05:37.386Z,0.9
2022-10-06T05:06:47.079Z,1
2022-10-06T05:07:56.773Z,1.1
2022-10-06T05:09:05.427Z,0.9
2022-10-06T05:10:15.091Z,1
2022-10-06T05:11:25.942Z,1
2022-10-06T05:12:35.443Z,1.2
2022-10-06T05:13:45.149Z,0.9
2022-10-06T05:14:52.801Z,0.9
2022-10-06T05:16:02.521Z,0.9
2022-10-06T05:17:12.131Z,1.1
2022-10-06T05:18:21.820Z,0.9
2022-10-06T05:19:31.508Z,1.1
2022-10-06T05:20:40.169Z,1.1
2022-10-06T05:21:49.851Z,1.1
2022-10-06T05:22:58.583Z,1.1
2022-10-06T05:24:07.244Z,1.2
2022-10-06T05:25:16.925Z,0.9
2022-10-06T05:26:24.612Z,1
2022-10-06T05:27:33.290Z,1.1
2022-10-06T05:28:42.998Z,0.9
2022-10-06T05:29:51.741Z,1.1
2022-10-06T05:31:01.417Z,1.4
2022-10-06T05:32:11.091Z,1.1
2022-10-06T05:33:18.764Z,1.3
2022-10-06T05:34:28.450Z,0.8
2022-10-06T05:35:37.171Z,0.8
2022-10-06T05:36:46.829Z,1
2022-10-06T05:37:56.513Z,1.1
2022-10-06T05:39:05.237Z,1.1
2022-10-06T05:40:14.901Z,1.1
2022-10-06T05:41:24.591Z,0.9
2022-10-06T05:42:33.263Z,1.1
2022-10-06T05:43:43.014Z,0.8
2022-10-06T05:44:51.684Z,0.9
2022-10-06T05:46:01.562Z,0.9
2022-10-06T05:47:11.301Z,0.8
2022-10-06T05:48:18.954Z,0.9
2022-10-06T05:49:28.618Z,1
2022-10-06T05:50:37.280Z,0.7
2022-10-06T05:51:46.952Z,0.9
2022-10-06T05:52:57.652Z,1.2
2022-10-06T05:54:06.347Z,0.7
2022-10-06T05:55:15.061Z,0.6
2022-10-06T05:56:24.715Z,0.8
2022-10-06T05:57:33.377Z,0.7
2022-10-06T05:58:43.068Z,0.9
2022-10-06T05:59:52.741Z,0.5
2022-10-06T06:01:00.421Z,0.7
2022-10-06T06:02:10.188Z,0.8
2022-10-06T06:03:17.777Z,0.6
2022-10-06T06:04:26.458Z,0.8
2022-10-06T06:05:36.121Z,0.6
2022-10-06T06:06:44.782Z,0.8
2022-10-06T06:07:54.478Z,0.8
2022-10-06T06:09:03.142Z,0.9
2022-10-06T06:10:10.827Z,1
2022-10-06T06:11:20.542Z,0.8
2022-10-06T06:12:29.230Z,1
2022-10-06T06:13:37.883Z,0.7
2022-10-06T06:14:47.553Z,0.8
2022-10-06T06:15:55.343Z,0.9
2022-10-06T06:17:05.065Z,0.8
2022-10-06T06:18:13.679Z,0.9
2022-10-06T06:19:27.108Z,1
2022-10-06T06:20:34.005Z,0.9
2022-10-06T06:21:41.680Z,1.2
2022-10-06T06:22:51.353Z,0.9
2022-10-06T06:24:01.048Z,0.5
2022-10-06T06:25:08.705Z,0.9
2022-10-06T06:26:18.419Z,0.6
2022-10-06T06:27:28.135Z,0.6
2022-10-06T06:28:35.809Z,0.7
2022-10-06T06:29:45.449Z,0.7
2022-10-06T06:30:55.147Z,0.9
2022-10-06T06:32:03.787Z,1.1
2022-10-06T06:33:13.512Z,1.1
2022-10-06T06:34:21.174Z,1.6
2022-10-06T06:35:30.855Z,1.4
2022-10-06T06:36:40.518Z,0.8
2022-10-06T06:37:49.209Z,0.8
2022-10-06T06:38:58.929Z,0.8
2022-10-06T06:40:08.611Z,1
2022-10-06T06:41:17.364Z,0.8
2022-10-06T06:42:27.053Z,0.5
2022-10-06T06:43:35.746Z,0.6
2022-10-06T06:44:45.423Z,0.4
2022-10-06T06:45:54.096Z,0.3
2022-10-06T06:47:01.736Z,0.6
2022-10-06T06:48:11.408Z,0.3
2022-10-06T06:49:19.079Z,0.6
2022-10-06T06:50:27.903Z,0.4
2022-10-06T06:51:37.560Z,0.4
2022-10-06T06:52:46.268Z,0.3
2022-10-06T06:53:55.936Z,0.9
2022-10-06T06:55:04.628Z,0.9
2022-10-06T06:56:13.341Z,0.6
2022-10-06T06:57:23.012Z,1
2022-10-06T06:58:31.007Z,0.7
2022-10-06T06:59:39.394Z,0.7
2022-10-06T07:00:49.012Z,0.7
2022-10-06T07:01:56.827Z,1.5
2022-10-06T07:03:06.374Z,0.9
2022-10-06T07:04:15.029Z,1
2022-10-06T07:05:24.704Z,0.5
2022-10-06T07:06:33.364Z,0.4
2022-10-06T07:07:42.049Z,0.4
2022-10-06T07:08:51.716Z,0.5
2022-10-06T07:10:00.424Z,0.7
2022-10-06T07:11:10.088Z,0.5
2022-10-06T07:12:19.762Z,0.5
2022-10-06T07:13:29.457Z,0.3
2022-10-06T07:14:39.164Z,0.4
2022-10-06T07:15:47.931Z,0.4
2022-10-06T07:16:55.502Z,0.6
2022-10-06T07:18:05.168Z,0.4
2022-10-06T07:19:13.011Z,0.3
2022-10-06T07:20:21.668Z,0.3
2022-10-06T07:21:31.344Z,0.4
2022-10-06T07:22:39.026Z,0.6
2022-10-06T07:23:48.703Z,0.2
2022-10-06T07:24:58.379Z,0.5
2022-10-06T07:26:07.056Z,0.3
2022-10-06T07:27:16.740Z,0.4
2022-10-06T07:28:26.488Z,0.5
2022-10-06T07:29:36.107Z,0.5
2022-10-06T07:30:45.796Z,0.5
2022-10-06T07:31:54.485Z,0.3
2022-10-06T07:33:04.132Z,0.5
2022-10-06T07:34:12.875Z,0.5
2022-10-06T07:35:20.545Z,0.4
2022-10-06T07:36:30.358Z,0.2
2022-10-06T07:37:38.030Z,0.3
2022-10-06T07:38:47.688Z,0.2
2022-10-06T07:39:57.363Z,0.2
2022-10-06T07:41:18.733Z,0.2
2022-10-06T07:42:17.776Z,0.4
2022-10-06T07:43:26.438Z,0.2
2022-10-06T07:44:34.113Z,0.4
2022-10-06T07:45:43.869Z,0.1
2022-10-06T07:46:52.471Z,0.2
2022-10-06T07:48:01.196Z,0.2
2022-10-06T07:49:10.880Z,0.3
2022-10-06T07:50:18.545Z,0.3
2022-10-06T07:51:28.240Z,0.3
2022-10-06T07:52:36.889Z,0.2
2022-10-06T07:53:45.687Z,0.1
2022-10-06T07:54:55.982Z,0.3
2022-10-06T07:56:04.046Z,0.2
2022-10-06T07:57:12.717Z,0.4
2022-10-06T07:58:22.373Z,0.1
2022-10-06T07:59:32.100Z,0.2
2022-10-06T08:00:41.794Z,0.2
2022-10-06T08:01:51.531Z,0.4
2022-10-06T08:03:00.222Z,0.2
2022-10-06T08:04:09.958Z,0.1
2022-10-06T08:05:17.535Z,0.2
2022-10-06T08:06:27.206Z,0.2
2022-10-06T08:07:36.870Z,0.1
2022-10-06T08:08:48.038Z,0.1
2022-10-06T08:09:56.258Z,0.2
2022-10-06T08:11:05.914Z,0.2
2022-10-06T08:12:14.588Z,0.2
2022-10-06T08:13:23.258Z,0.2
2022-10-06T08:14:30.967Z,0.2
2022-10-06T08:15:40.819Z,0.2
2022-10-06T08:16:49.435Z,0.2
2022-10-06T08:17:57.112Z,0.2
2022-10-06T08:19:06.782Z,0.3
2022-10-06T08:20:15.524Z,0.3
2022-10-06T08:21:23.169Z,0.3
2022-10-06T08:22:31.958Z,0.3
2022-10-06T08:23:41.655Z,0.1
2022-10-06T08:25:05.081Z,0.2
2022-10-06T08:26:02.005Z,0.2
2022-10-06T08:27:09.685Z,0.1
2022-10-06T08:28:19.443Z,0.2
2022-10-06T08:29:29.087Z,0.2
2022-10-06T08:30:37.792Z,0.2
2022-10-06T08:31:47.573Z,0.2
2022-10-06T08:32:56.167Z,0.3
2022-10-06T08:34:10.055Z,0.3
2022-10-06T08:35:15.513Z,0.2
2022-10-06T08:36:28.371Z,0.3
2022-10-06T08:37:34.868Z,0.1
2022-10-06T08:38:44.563Z,0.1
2022-10-06T08:39:52.242Z,0.3
2022-10-06T08:41:01.917Z,0.2
2022-10-06T08:42:09.581Z,0.3
2022-10-06T08:43:18.251Z,0.2
2022-10-06T08:44:27.929Z,0.4
2022-10-06T08:45:38.943Z,0.2
2022-10-06T08:46:48.365Z,0.2
2022-10-06T08:47:57.030Z,0.2
2022-10-06T08:49:05.737Z,0.2
2022-10-06T08:50:15.414Z,0.2
2022-10-06T08:51:24.088Z,0.2
2022-10-06T08:52:32.783Z,0.3
2022-10-06T08:53:41.453Z,0.1
2022-10-06T08:54:49.135Z,0.2
2022-10-06T08:55:58.805Z,0.1
2022-10-06T08:57:07.642Z,0.2
2022-10-06T08:58:15.308Z,0.3
2022-10-06T08:59:24.057Z,0.2
2022-10-06T09:00:31.745Z,0.2
2022-10-06T09:01:41.619Z,0.3
2022-10-06T09:02:50.355Z,0.3
2022-10-06T09:03:59.871Z,0.3
2022-10-06T09:05:09.549Z,0.1
2022-10-06T09:06:18.213Z,0.2
2022-10-06T09:07:26.897Z,0.4
2022-10-06T09:08:35.637Z,0.3
2022-10-06T09:09:44.274Z,0.3
2022-10-06T09:10:53.934Z,0.2
2022-10-06T09:12:03.683Z,0.2
2022-10-06T09:13:12.306Z,0.2
2022-10-06T09:14:22.023Z,0.3
2022-10-06T09:15:30.722Z,0.2
2022-10-06T09:16:40.441Z,0.3
2022-10-06T09:17:50.110Z,0.2
2022-10-06T09:19:15.211Z,0.2
2022-10-06T09:20:10.471Z,0.2
2022-10-06T09:21:19.127Z,0.3
2022-10-06T09:22:27.831Z,0.1
2022-10-06T09:23:37.529Z,0.2
2022-10-06T09:24:47.673Z,0.3
2022-10-06T09:25:57.011Z,0.2
2022-10-06T09:27:05.715Z,0.3
2022-10-06T09:28:13.489Z,0.2
2022-10-06T09:29:23.166Z,0.3
2022-10-06T09:30:32.911Z,0.3
2022-10-06T09:31:42.707Z,0.2
2022-10-06T09:32:52.310Z,0.1
2022-10-06T09:34:00.047Z,0.2
2022-10-06T09:35:09.714Z,0.3
2022-10-06T09:36:18.407Z,0.1
2022-10-06T09:37:28.095Z,0.4
2022-10-06T09:38:37.769Z,0.2
2022-10-06T09:39:45.466Z,0.1
2022-10-06T09:40:54.162Z,0.2
2022-10-06T09:42:03.816Z,0.2
2022-10-06T09:43:12.515Z,0.4
2022-10-06T09:44:22.240Z,0.1
2022-10-06T09:45:30.905Z,0.2
2022-10-06T09:46:39.598Z,0.2
2022-10-06T09:47:49.283Z,0.2
2022-10-06T09:48:58.010Z,0.2
2022-10-06T09:50:08.679Z,0.1
2022-10-06T09:51:18.367Z,0.1
2022-10-06T09:52:27.096Z,0.2
2022-10-06T09:53:37.716Z,0
2022-10-06T09:54:44.463Z,0.2
2022-10-06T09:55:53.153Z,0.2
2022-10-06T09:57:02.834Z,0.2
2022-10-06T09:58:10.521Z,0.3
2022-10-06T09:59:20.246Z,0.5
2022-10-06T10:00:30.131Z,0.3
2022-10-06T10:01:38.732Z,0.1
2022-10-06T10:02:48.456Z,0.1
2022-10-06T10:04:28.022Z,0.2
2022-10-06T10:05:06.732Z,0.2
2022-10-06T10:06:16.460Z,0.1
2022-10-06T10:07:24.126Z,0.3
2022-10-06T10:09:43.492Z,0.2
2022-10-06T10:10:53.197Z,0
2022-10-06T10:12:01.925Z,0.1
2022-10-06T10:13:10.633Z,0.4
2022-10-06T10:14:20.328Z,0.3
2022-10-06T10:15:30.029Z,0.5
2022-10-06T10:16:37.737Z,0.3
2022-10-06T10:17:47.430Z,0.2
2022-10-06T10:18:57.164Z,0.1
2022-10-06T10:20:04.814Z,0.1
2022-10-06T10:21:14.542Z,0.3
2022-10-06T10:22:24.245Z,0.2
2022-10-06T10:23:32.923Z,0.2
2022-10-06T10:24:42.631Z,0.2
2022-10-06T10:25:51.316Z,0.2
2022-10-06T10:26:59.992Z,0.3
2022-10-06T10:28:09.737Z,0.2
2022-10-06T10:29:19.469Z,0.2
2022-10-06T10:30:29.156Z,0.1
2022-10-06T10:31:37.932Z,0
2022-10-06T10:32:45.532Z,0.1
2022-10-06T10:34:04.942Z,0.2
2022-10-06T10:35:04.898Z,0.2
2022-10-06T10:36:13.583Z,0.2
2022-10-06T10:37:23.266Z,0.4
2022-10-06T10:38:30.952Z,0.1
2022-10-06T10:39:40.641Z,0.1
2022-10-06T10:40:49.362Z,0.2
2022-10-06T10:41:58.193Z,0.2
2022-10-06T10:43:07.778Z,0.3
2022-10-06T10:44:16.501Z,0.3
2022-10-06T10:45:25.327Z,0.2
2022-10-06T10:46:35.062Z,0.5
2022-10-06T10:47:42.666Z,0.2
2022-10-06T10:48:52.398Z,0.2
2022-10-06T10:50:01.068Z,0.3
2022-10-06T10:51:09.765Z,0.1
2022-10-06T10:52:19.514Z,0.2
2022-10-06T10:53:28.210Z,0.2
2022-10-06T10:54:36.886Z,0.3
2022-10-06T10:55:46.558Z,0.1
2022-10-06T10:56:56.307Z,0.2
2022-10-06T10:58:06.038Z,0.2
2022-10-06T10:59:15.719Z,0.2
2022-10-06T11:00:25.437Z,0.2
2022-10-06T11:01:34.155Z,0.3
2022-10-06T11:02:42.809Z,0.5
2022-10-06T11:03:52.556Z,0.1
2022-10-06T11:05:02.243Z,0
2022-10-06T11:06:10.918Z,0.2
2022-10-06T11:07:19.581Z,0.2
2022-10-06T11:08:27.258Z,0.2
2022-10-06T11:09:36.986Z,0.2
2022-10-06T11:10:46.662Z,0.1
2022-10-06T11:11:54.327Z,0
2022-10-06T11:13:04.005Z,0.1
2022-10-06T11:14:12.683Z,0.1
2022-10-06T11:15:21.372Z,0.2
2022-10-06T11:16:31.265Z,0.1
2022-10-06T11:17:38.842Z,0.1
2022-10-06T11:18:48.562Z,0.1
2022-10-06T11:19:57.315Z,0.1
2022-10-06T11:21:05.080Z,0.3
2022-10-06T11:22:14.754Z,0.1
2022-10-06T11:23:22.421Z,0.1
2022-10-06T11:24:32.093Z,0.1
2022-10-06T11:25:41.769Z,0.1
2022-10-06T11:26:50.627Z,0.2
2022-10-06T11:28:00.364Z,0.2
2022-10-06T11:29:09.009Z,0.2
2022-10-06T11:30:16.684Z,0.2
2022-10-06T11:31:26.464Z,0.2
2022-10-06T11:32:36.290Z,0.2
2022-10-06T11:33:44.930Z,0.2
2022-10-06T11:34:54.626Z,0.3
2022-10-06T11:36:03.315Z,0.3
2022-10-06T11:37:11.980Z,0.3
2022-10-06T11:38:20.721Z,0.1
2022-10-06T11:39:28.411Z,0.2
2022-10-06T11:40:38.089Z,0.2
2022-10-06T11:41:46.803Z,0.3
2022-10-06T11:42:55.525Z,0.1
2022-10-06T11:44:05.247Z,0.4
2022-10-06T11:45:13.951Z,0.2
2022-10-06T11:46:23.943Z,0.2
2022-10-06T11:47:35.248Z,0.2
2022-10-06T11:48:42.281Z,0.4
2022-10-06T11:49:50.960Z,0.2
2022-10-06T11:50:59.699Z,0.1
2022-10-06T11:52:09.423Z,0.2
2022-10-06T11:53:19.056Z,0.2
2022-10-06T11:54:27.746Z,0.1
2022-10-06T11:55:37.492Z,0.2
2022-10-06T11:56:46.171Z,0.2
2022-10-06T11:57:53.891Z,0.3
2022-10-06T11:59:03.647Z,0.2
2022-10-06T12:00:11.429Z,0.2
2022-10-06T12:01:21.064Z,0.4
2022-10-06T12:02:30.923Z,0.2
2022-10-06T12:03:38.472Z,0.2
2022-10-06T12:04:47.199Z,0.3
2022-10-06T12:05:57.435Z,0.2
2022-10-06T12:07:05.634Z,0.2
2022-10-06T12:08:15.313Z,0.2
2022-10-06T12:09:24.022Z,0.2
2022-10-06T12:10:33.714Z,0.1
2022-10-06T12:11:43.407Z,0.2
2022-10-06T12:13:06.005Z,0.1
2022-10-06T12:17:05.455Z,0.1
2022-10-06T12:17:35.845Z,0.2
2022-10-06T12:18:43.589Z,0.2
2022-10-06T12:19:52.286Z,0.4
2022-10-06T12:21:01.956Z,0.4
2022-10-06T12:22:09.636Z,0.4
2022-10-06T12:23:20.334Z,0.3
2022-10-06T12:24:29.029Z,0.2
2022-10-06T12:25:36.688Z,0.2
2022-10-06T12:26:46.359Z,0.1
2022-10-06T12:27:54.035Z,0.2
2022-10-06T12:29:02.703Z,0.3
2022-10-06T12:30:12.420Z,0.2
2022-10-06T12:31:22.124Z,0.1
2022-10-06T12:32:31.793Z,0.3
2022-10-06T12:33:41.528Z,0.3
2022-10-06T12:34:50.219Z,0.3
2022-10-06T12:36:00.095Z,0.2
2022-10-06T12:37:07.737Z,0.1
2022-10-06T12:38:16.427Z,0.1
2022-10-06T12:39:26.096Z,0.3
2022-10-06T12:40:33.802Z,0.4
2022-10-06T12:41:43.550Z,0.3
2022-10-06T12:42:52.253Z,0.3
2022-10-06T12:43:59.932Z,0.2
2022-10-06T12:45:09.644Z,0.1
2022-10-06T12:46:18.362Z,0.2
2022-10-06T12:47:27.024Z,0.2
2022-10-06T12:48:36.729Z,0.2
2022-10-06T12:49:45.457Z,0.2
2022-10-06T12:50:55.134Z,0.2
2022-10-06T12:52:06.394Z,0
2022-10-06T12:53:12.505Z,0.2
2022-10-06T12:54:22.257Z,0.3
2022-10-06T12:55:30.950Z,0.4
2022-10-06T12:56:39.671Z,0.3
2022-10-06T12:57:47.358Z,0.5
2022-10-06T12:58:57.073Z,0.3
2022-10-06T13:00:06.789Z,0.1
2022-10-06T13:01:14.483Z,0.2
2022-10-06T13:02:24.186Z,0.1
2022-10-06T13:03:32.783Z,0.2
2022-10-06T13:04:42.506Z,0.3
2022-10-06T13:05:52.219Z,0.1
2022-10-06T13:07:03.962Z,0.2
2022-10-06T13:08:11.599Z,0.2
2022-10-06T13:09:21.257Z,0.2
2022-10-06T13:10:29.118Z,0.2
2022-10-06T13:11:38.819Z,0.2
2022-10-06T13:12:48.556Z,0.4
2022-10-06T13:13:57.297Z,0.2
2022-10-06T13:15:07.002Z,0.3
2022-10-06T13:16:15.772Z,0.3
2022-10-06T13:17:24.414Z,0.2
2022-10-06T13:18:34.103Z,0.3
2022-10-06T13:19:42.797Z,0.4
2022-10-06T13:20:52.477Z,0.3
2022-10-06T13:22:01.171Z,0.1
2022-10-06T13:23:12.611Z,0.3
2022-10-06T13:24:21.694Z,0.2
2022-10-06T13:25:29.309Z,0.2
2022-10-06T13:26:38.002Z,0.2
2022-10-06T13:27:47.894Z,0.1
2022-10-06T13:28:56.560Z,0.2
2022-10-06T13:30:06.244Z,0.1
2022-10-06T13:31:14.926Z,0
2022-10-06T13:32:22.585Z,0.1
2022-10-06T13:33:32.323Z,0.4
2022-10-06T13:34:41.009Z,0.1
2022-10-06T13:35:49.679Z,0.3
2022-10-06T13:36:58.360Z,0.3
2022-10-06T13:38:08.024Z,0.1
2022-10-06T13:39:17.742Z,0.5
2022-10-06T13:40:43.379Z,0.1
2022-10-06T13:41:38.149Z,0.2
2022-10-06T13:42:47.797Z,0.1
2022-10-06T13:43:56.482Z,0.2
2022-10-06T13:45:05.198Z,0.4
2022-10-06T13:46:14.993Z,0.3
2022-10-06T13:47:22.621Z,0.1
2022-10-06T13:48:32.323Z,0.1
2022-10-06T13:49:40.999Z,0.1
2022-10-06T13:50:49.771Z,0.2
2022-10-06T13:51:59.441Z,0.2
2022-10-06T13:53:07.125Z,0.1
2022-10-06T13:54:15.811Z,0.1
2022-10-06T13:55:24.487Z,0.3
2022-10-06T13:56:32.238Z,0.2
2022-10-06T13:57:41.941Z,0.2
2022-10-06T13:58:51.652Z,0.2
2022-10-06T14:00:00.839Z,0.2
2022-10-06T14:01:10.088Z,0.4
2022-10-06T14:02:18.859Z,0.1
2022-10-06T14:03:27.517Z,0.1
2022-10-06T14:04:37.493Z,0.1
2022-10-06T14:05:46.868Z,0.3
2022-10-06T14:06:56.567Z,0
2022-10-06T14:08:05.259Z,0.2
2022-10-06T14:09:15.019Z,0.2
2022-10-06T14:11:33.445Z,0.3
2022-10-06T14:12:42.148Z,0.2
2022-10-06T14:13:51.968Z,0.2
2022-10-06T14:15:01.050Z,0.1
2022-10-06T14:16:10.411Z,0.3
2022-10-06T14:17:19.028Z,0.2
2022-10-06T14:18:27.730Z,0.3
2022-10-06T14:19:37.414Z,1.1
2022-10-06T14:20:46.144Z,0.4
2022-10-06T14:21:54.870Z,0.3
2022-10-06T14:23:04.580Z,0.3
2022-10-06T14:24:13.279Z,0.3
2022-10-06T14:25:22.979Z,0.1
2022-10-06T14:26:31.726Z,0.2
2022-10-06T14:27:39.413Z,0.1
2022-10-06T14:28:49.160Z,0.2
2022-10-06T14:29:58.031Z,0.2
2022-10-06T14:31:08.709Z,0.4
2022-10-06T14:32:17.177Z,0.1
2022-10-06T14:33:24.860Z,0.4
2022-10-06T14:34:34.557Z,0.1
2022-10-06T14:35:44.265Z,0.2
2022-10-06T14:36:52.960Z,0.2
2022-10-06T14:38:02.642Z,0.3
2022-10-06T14:39:11.318Z,0.1
2022-10-06T14:40:19.991Z,0.1
2022-10-06T14:41:29.689Z,0.5
2022-10-06T14:42:38.544Z,0.2
2022-10-06T14:43:48.125Z,0.4
2022-10-06T14:44:58.015Z,0.2
2022-10-06T14:46:07.537Z,0.1
2022-10-06T14:47:17.215Z,0.3
2022-10-06T14:48:25.931Z,0.2
2022-10-06T14:49:34.589Z,0.2
2022-10-06T14:50:44.269Z,0.2
2022-10-06T14:51:52.936Z,0.3
2022-10-06T14:53:01.634Z,0.1
2022-10-06T14:54:10.362Z,0.1
2022-10-06T14:55:20.042Z,0.5
2022-10-06T14:56:28.741Z,0.2
2022-10-06T14:57:38.508Z,0.2
2022-10-06T14:58:48.173Z,0.2
2022-10-06T14:59:56.039Z,0.2
2022-10-06T15:01:04.554Z,0.1
2022-10-06T15:02:14.211Z,0.2
2022-10-06T15:03:22.977Z,0.2
2022-10-06T15:04:32.568Z,0.2
2022-10-06T15:05:41.278Z,0.3
2022-10-06T15:06:48.966Z,0.3
2022-10-06T15:07:58.659Z,0.2
2022-10-06T15:09:08.338Z,0.1
2022-10-06T15:10:17.004Z,0.1
2022-10-06T15:11:26.731Z,0.1
2022-10-06T15:12:36.391Z,0.2
2022-10-06T15:13:45.075Z,0.1
2022-10-06T15:14:53.755Z,0.3
2022-10-06T15:16:01.555Z,0.2
2022-10-06T15:17:11.274Z,0.1
2022-10-06T15:18:20.037Z,0.2
2022-10-06T15:19:28.815Z,0.2
2022-10-06T15:20:38.581Z,0.3
2022-10-06T15:21:46.366Z,0.3
2022-10-06T15:22:55.982Z,0.4
2022-10-06T15:24:04.670Z,0.4
2022-10-06T15:25:12.378Z,0.1
2022-10-06T15:26:22.056Z,0.3
2022-10-06T15:27:31.784Z,0.2
2022-10-06T15:28:41.485Z,0.3
2022-10-06T15:29:51.169Z,0.3
2022-10-06T15:31:00.945Z,0.2
2022-10-06T15:32:10.579Z,0.4
2022-10-06T15:33:20.387Z,0.3
2022-10-06T15:34:29.092Z,0.3
2022-10-06T15:35:38.851Z,0.4
2022-10-06T15:36:46.557Z,0.1
2022-10-06T15:37:55.251Z,0.4
2022-10-06T15:39:04.944Z,0.3
2022-10-06T15:40:12.742Z,0.2
2022-10-06T15:41:22.430Z,0.2
2022-10-06T15:42:31.112Z,0.3
2022-10-06T15:43:38.834Z,0.1
2022-10-06T15:44:48.565Z,0.4
2022-10-06T15:45:56.274Z,0.3
2022-10-06T15:47:05.153Z,0.5
2022-10-06T15:48:14.843Z,0.2
2022-10-06T15:49:22.702Z,0.3
2022-10-06T15:50:32.693Z,0.4
2022-10-06T15:51:41.681Z,0.5
2022-10-06T15:52:50.428Z,0.6
2022-10-06T15:54:00.318Z,0.5
2022-10-06T15:55:08.108Z,0.4
2022-10-06T15:56:16.922Z,0.5
2022-10-06T15:57:26.662Z,0.5
2022-10-06T15:58:35.332Z,0.5
2022-10-06T15:59:45.061Z,0.6